Arkoma, Oklahoma
Current Conditions -  °F | °C
As of 12:53 AM on Saturday 29 Nov 2014 (Local Time) from KFSM Reporting Station
Clear Clear  
Wind Chill: 43°   Ceiling: Unl
Heat Index: 43°   Visibility: 10mi
Dew Point: 38°   Wind: 3mph
Humidity: 82%   Direction: 60°ENE
Pressure: 29.92"   Gusts: NA
Location:  35.35°N, 94.43°W
Report Text: KFSM 290653Z AUTO 06003KT 10SM CLR 06/03 A2992 RMK AO2 SLP131 T00610033
Loading
Personal Weather Stations






























Interactive Weather Map New forecast layout! Learn more

10-Day Weather Forecast

Advertisements
Track Severe Weather on mobile